createdAt,value
2022-12-31T00:00:16.525Z,13.15
2022-12-31T00:00:51.427Z,15.00
2022-12-31T00:01:25.140Z,13.35
2022-12-31T00:01:57.886Z,13.05
2022-12-31T00:02:33.117Z,13.07
2022-12-31T00:03:05.432Z,14.27
2022-12-31T00:03:37.998Z,13.52
2022-12-31T00:04:12.749Z,13.88
2022-12-31T00:04:45.052Z,13.23
2022-12-31T00:05:17.341Z,14.10
2022-12-31T00:05:52.072Z,13.73
2022-12-31T00:06:26.592Z,15.38
2022-12-31T00:06:58.866Z,14.60
2022-12-31T00:08:05.047Z,14.90
2022-12-31T00:08:37.209Z,14.52
2022-12-31T00:09:13.078Z,12.70
2022-12-31T00:09:45.476Z,13.60
2022-12-31T00:10:17.763Z,14.77
2022-12-31T00:10:52.613Z,14.43
2022-12-31T00:11:26.031Z,15.63
2022-12-31T00:11:58.218Z,12.90
2022-12-31T00:12:32.979Z,14.38
2022-12-31T00:13:07.900Z,14.35
2022-12-31T00:13:43.235Z,14.57
2022-12-31T00:14:16.095Z,13.15
2022-12-31T00:14:48.224Z,15.13
2022-12-31T00:15:23.251Z,13.88
2022-12-31T00:15:55.336Z,14.00
2022-12-31T00:16:31.868Z,13.73
2022-12-31T00:17:04.128Z,15.05
2022-12-31T00:17:36.365Z,15.43
2022-12-31T00:18:11.759Z,14.63
2022-12-31T00:18:44.363Z,14.07
2022-12-31T00:19:16.447Z,14.73
2022-12-31T00:19:51.177Z,15.65
2022-12-31T00:20:23.344Z,14.60
2022-12-31T00:20:55.727Z,14.82
2022-12-31T00:21:32.485Z,13.02
2022-12-31T00:22:04.642Z,13.88
2022-12-31T00:22:38.069Z,13.27
2022-12-31T00:23:13.442Z,13.70
2022-12-31T00:23:46.082Z,15.20
2022-12-31T00:24:20.748Z,14.68
2022-12-31T00:24:53.299Z,13.52
2022-12-31T00:25:25.625Z,14.93
2022-12-31T00:26:04.441Z,14.48
2022-12-31T00:26:37.033Z,14.95
2022-12-31T00:27:11.809Z,12.85
2022-12-31T00:27:43.898Z,14.70
2022-12-31T00:28:18.580Z,15.05
2022-12-31T00:28:54.195Z,15.88
2022-12-31T00:29:26.298Z,14.75
2022-12-31T00:30:04.245Z,15.63
2022-12-31T00:30:39.552Z,14.73
2022-12-31T00:31:13.604Z,15.00
2022-12-31T00:31:45.758Z,16.33
2022-12-31T00:32:20.536Z,14.80
2022-12-31T00:32:53.524Z,15.27
2022-12-31T00:33:25.664Z,14.98
2022-12-31T00:34:00.752Z,15.38
2022-12-31T00:34:32.855Z,14.88
2022-12-31T00:35:06.177Z,14.43
2022-12-31T00:35:40.849Z,14.60
2022-12-31T00:36:15.293Z,14.52
2022-12-31T00:36:47.454Z,15.65
2022-12-31T00:37:22.137Z,14.90
2022-12-31T00:37:54.333Z,14.55
2022-12-31T00:38:26.404Z,15.15
2022-12-31T00:39:02.727Z,15.52
2022-12-31T00:39:34.901Z,15.60
2022-12-31T00:40:09.030Z,15.40
2022-12-31T00:40:43.722Z,15.25
2022-12-31T00:41:16.913Z,14.70
2022-12-31T00:41:51.602Z,15.38
2022-12-31T00:42:23.766Z,14.52
2022-12-31T00:42:56.003Z,14.27
2022-12-31T00:43:30.782Z,14.68
2022-12-31T00:44:05.786Z,16.02
2022-12-31T00:44:37.871Z,15.63
2022-12-31T00:45:10.944Z,15.02
2022-12-31T00:45:45.643Z,15.40
2022-12-31T00:46:18.603Z,16.73
2022-12-31T00:46:50.913Z,15.45
2022-12-31T00:47:26.504Z,15.38
2022-12-31T00:47:58.667Z,15.73
2022-12-31T00:48:31.016Z,15.95
2022-12-31T00:49:05.740Z,15.05
2022-12-31T00:49:37.952Z,16.30
2022-12-31T00:50:10.412Z,16.55
2022-12-31T00:50:45.159Z,15.73
2022-12-31T00:51:19.562Z,16.75
2022-12-31T00:51:54.519Z,15.35
2022-12-31T00:52:26.586Z,15.88
2022-12-31T00:52:58.719Z,16.40
2022-12-31T00:53:33.639Z,16.10
2022-12-31T00:54:06.097Z,18.73
2022-12-31T00:54:38.388Z,16.60
2022-12-31T00:55:13.128Z,15.48
2022-12-31T00:55:45.199Z,16.60
2022-12-31T00:56:20.212Z,16.88
2022-12-31T00:56:54.934Z,17.48
2022-12-31T00:57:27.017Z,17.50
2022-12-31T00:57:59.160Z,15.70
2022-12-31T00:58:36.513Z,16.15
2022-12-31T00:59:08.616Z,16.10
2022-12-31T00:59:40.741Z,15.73
2022-12-31T01:00:17.045Z,17.40
2022-12-31T01:00:49.132Z,16.27
2022-12-31T01:01:23.080Z,16.67
2022-12-31T01:01:58.033Z,16.40
2022-12-31T01:02:30.371Z,17.02
2022-12-31T01:03:02.692Z,17.83
2022-12-31T01:03:37.485Z,16.70
2022-12-31T01:04:12.436Z,16.60
2022-12-31T01:04:47.423Z,16.65
2022-12-31T01:05:19.515Z,16.33
2022-12-31T01:05:51.658Z,16.75
2022-12-31T01:06:26.650Z,17.50
2022-12-31T01:06:58.781Z,16.08
2022-12-31T01:07:33.472Z,16.77
2022-12-31T01:08:06.137Z,16.65
2022-12-31T01:08:38.345Z,15.80
2022-12-31T01:09:14.705Z,16.65
2022-12-31T01:09:46.820Z,16.00
2022-12-31T01:10:40.268Z,16.23
2022-12-31T01:11:19.331Z,17.15
2022-12-31T01:11:54.518Z,16.65
2022-12-31T01:12:26.644Z,18.13
2022-12-31T01:12:59.760Z,17.48
2022-12-31T01:13:37.138Z,17.15
2022-12-31T01:14:11.100Z,17.27
2022-12-31T01:14:47.075Z,20.27
2022-12-31T01:15:19.177Z,17.88
2022-12-31T01:15:51.416Z,16.77
2022-12-31T01:16:28.583Z,16.77
2022-12-31T01:17:00.756Z,15.27
2022-12-31T01:17:35.562Z,18.77
2022-12-31T01:18:08.899Z,16.42
2022-12-31T01:18:41.162Z,17.60
2022-12-31T01:19:18.561Z,16.50
2022-12-31T01:19:50.948Z,18.08
2022-12-31T01:20:23.066Z,16.50
2022-12-31T01:20:55.250Z,17.70
2022-12-31T01:21:30.106Z,18.00
2022-12-31T01:22:02.324Z,17.17
2022-12-31T01:22:37.086Z,17.80
2022-12-31T01:23:10.866Z,16.67
2022-12-31T01:23:42.997Z,17.13
2022-12-31T01:24:18.510Z,17.88
2022-12-31T01:24:50.662Z,16.67
2022-12-31T01:25:22.759Z,16.58
2022-12-31T01:25:57.433Z,17.55
2022-12-31T01:26:30.033Z,17.45
2022-12-31T01:27:04.794Z,18.27
2022-12-31T01:27:36.923Z,17.17
2022-12-31T01:28:09.720Z,17.15
2022-12-31T01:28:47.023Z,17.40
2022-12-31T01:29:19.391Z,17.15
2022-12-31T01:29:51.473Z,16.98
2022-12-31T01:30:26.130Z,16.20
2022-12-31T01:30:59.013Z,16.67
2022-12-31T01:31:31.475Z,17.83
2022-12-31T01:32:06.469Z,16.95
2022-12-31T01:32:38.571Z,17.38
2022-12-31T01:33:10.710Z,18.92
2022-12-31T01:33:45.961Z,18.58
2022-12-31T01:34:18.072Z,15.73
2022-12-31T01:34:50.161Z,17.50
2022-12-31T01:35:24.927Z,16.25
2022-12-31T01:36:02.417Z,17.73
2022-12-31T01:36:38.548Z,15.52
2022-12-31T01:37:10.706Z,17.02
2022-12-31T01:37:42.799Z,16.65
2022-12-31T01:38:21.311Z,17.33
2022-12-31T01:38:54.482Z,17.95
2022-12-31T01:39:29.441Z,16.83
2022-12-31T01:40:01.614Z,17.40
2022-12-31T01:40:37.571Z,17.42
2022-12-31T01:41:12.778Z,16.38
2022-12-31T01:41:49.544Z,17.85
2022-12-31T01:42:21.687Z,16.60
2022-12-31T01:42:57.650Z,17.25
2022-12-31T01:43:50.615Z,16.85
2022-12-31T01:44:48.943Z,17.38
2022-12-31T01:45:21.365Z,16.23
2022-12-31T01:45:57.361Z,17.65
2022-12-31T01:46:36.613Z,16.08
2022-12-31T01:47:15.680Z,18.95
2022-12-31T01:47:54.644Z,17.70
2022-12-31T01:48:28.629Z,17.63
2022-12-31T01:49:05.034Z,17.52
2022-12-31T01:49:43.391Z,17.88
2022-12-31T01:50:20.328Z,18.65
2022-12-31T01:50:56.535Z,17.80
2022-12-31T01:51:31.523Z,18.40
2022-12-31T01:52:08.968Z,18.00
2022-12-31T01:52:48.237Z,17.15
2022-12-31T01:53:21.164Z,17.38
2022-12-31T01:53:53.535Z,17.75
2022-12-31T01:54:30.025Z,19.00
2022-12-31T01:55:08.107Z,18.42
2022-12-31T01:55:50.098Z,17.63
2022-12-31T01:56:23.963Z,17.75
2022-12-31T01:56:57.492Z,17.27
2022-12-31T01:57:32.883Z,18.15
2022-12-31T01:58:10.474Z,18.48
2022-12-31T01:58:51.327Z,17.73
2022-12-31T01:59:25.730Z,17.50
2022-12-31T01:59:59.888Z,16.60
2022-12-31T02:00:35.194Z,18.05
2022-12-31T02:01:09.370Z,18.27
2022-12-31T02:01:41.672Z,19.08
2022-12-31T02:02:18.503Z,17.88
2022-12-31T02:02:51.169Z,18.50
2022-12-31T02:03:24.428Z,18.55
2022-12-31T02:04:00.089Z,17.52
2022-12-31T02:04:32.272Z,17.90
2022-12-31T02:05:13.669Z,17.00
2022-12-31T02:05:53.807Z,17.45
2022-12-31T02:06:32.438Z,18.45
2022-12-31T02:07:09.688Z,17.55
2022-12-31T02:07:43.398Z,19.17
2022-12-31T02:08:18.729Z,19.27
2022-12-31T02:08:51.098Z,17.58
2022-12-31T02:09:23.424Z,18.08
2022-12-31T02:09:58.210Z,20.05
2022-12-31T02:10:30.307Z,18.40
2022-12-31T02:11:02.474Z,18.33
2022-12-31T02:11:38.359Z,18.40
2022-12-31T02:12:11.115Z,18.80
2022-12-31T02:12:43.372Z,18.95
2022-12-31T02:13:18.716Z,19.25
2022-12-31T02:13:58.635Z,17.60
2022-12-31T02:14:36.574Z,18.27
2022-12-31T02:15:09.747Z,18.00
2022-12-31T02:15:52.275Z,18.05
2022-12-31T02:16:34.604Z,18.17
2022-12-31T02:17:14.939Z,18.25
2022-12-31T02:17:56.445Z,18.88
2022-12-31T02:18:37.544Z,18.85
2022-12-31T02:19:38.498Z,19.40
2022-12-31T02:21:36.364Z,18.00
2022-12-31T02:22:18.072Z,18.50
2022-12-31T02:23:11.093Z,17.52
2022-12-31T02:24:12.603Z,17.48
2022-12-31T02:25:04.984Z,17.88
2022-12-31T02:25:53.526Z,19.73
2022-12-31T02:26:43.395Z,18.83
2022-12-31T02:27:31.878Z,17.88
2022-12-31T02:28:20.189Z,18.35
2022-12-31T02:29:17.828Z,18.35
2022-12-31T02:30:11.365Z,18.23
2022-12-31T02:30:48.097Z,18.48
2022-12-31T02:31:26.829Z,18.05
2022-12-31T02:32:05.646Z,19.15
2022-12-31T02:32:58.356Z,19.67
2022-12-31T02:33:38.409Z,18.40
2022-12-31T02:34:16.471Z,18.75
2022-12-31T02:34:52.664Z,19.95
2022-12-31T02:35:32.400Z,18.70
2022-12-31T02:36:11.353Z,18.77
2022-12-31T02:36:47.312Z,18.48
2022-12-31T02:37:24.758Z,17.65
2022-12-31T02:38:01.935Z,19.45
2022-12-31T02:38:43.290Z,18.75
2022-12-31T02:39:16.005Z,18.40
2022-12-31T02:39:49.257Z,19.98
2022-12-31T02:40:23.017Z,18.48
2022-12-31T02:40:57.979Z,18.65
2022-12-31T02:41:45.140Z,18.10
2022-12-31T02:42:17.431Z,18.77
2022-12-31T02:42:55.542Z,20.92
2022-12-31T02:43:28.427Z,21.15
2022-12-31T02:44:00.746Z,19.48
2022-12-31T02:44:37.931Z,19.48
2022-12-31T02:45:16.441Z,20.50
2022-12-31T02:46:00.978Z,20.27
2022-12-31T02:46:43.051Z,18.45
2022-12-31T02:47:23.135Z,19.20
2022-12-31T02:48:09.051Z,18.02
2022-12-31T02:48:49.277Z,19.67
2022-12-31T02:49:31.628Z,19.42
2022-12-31T02:50:18.867Z,20.05
2022-12-31T02:50:58.211Z,19.08
2022-12-31T02:51:42.831Z,19.55
2022-12-31T02:52:22.843Z,18.13
2022-12-31T02:53:02.970Z,19.55
2022-12-31T02:54:05.664Z,19.13
2022-12-31T02:54:48.892Z,19.27
2022-12-31T02:55:33.719Z,18.58
2022-12-31T02:56:12.791Z,19.05
2022-12-31T02:56:59.567Z,18.65
2022-12-31T02:57:44.093Z,20.10
2022-12-31T02:58:48.090Z,18.88
2022-12-31T02:59:38.476Z,18.48
2022-12-31T03:00:30.888Z,18.77
2022-12-31T03:01:18.192Z,18.73
2022-12-31T03:02:10.470Z,18.02
2022-12-31T03:02:48.444Z,18.08
2022-12-31T03:03:21.725Z,21.23
2022-12-31T03:04:14.094Z,19.40
2022-12-31T03:04:53.164Z,19.13
2022-12-31T03:05:29.536Z,19.35
2022-12-31T03:06:03.364Z,19.63
2022-12-31T03:06:35.682Z,18.83
2022-12-31T03:07:12.801Z,21.00
2022-12-31T03:07:45.761Z,20.08
2022-12-31T03:08:22.624Z,20.65
2022-12-31T03:09:09.832Z,20.92
2022-12-31T03:09:44.697Z,18.98
2022-12-31T03:10:17.139Z,19.90
2022-12-31T03:10:49.513Z,18.25
2022-12-31T03:11:36.445Z,20.60
2022-12-31T03:12:35.184Z,18.60
2022-12-31T03:13:09.883Z,19.08
2022-12-31T03:13:42.009Z,18.75
2022-12-31T03:14:14.289Z,19.33
2022-12-31T03:14:46.593Z,21.15
2022-12-31T03:15:26.262Z,19.20
2022-12-31T03:15:58.357Z,19.17
2022-12-31T03:16:30.568Z,19.73
2022-12-31T03:17:05.271Z,19.63
2022-12-31T03:17:37.394Z,19.58
2022-12-31T03:18:14.149Z,19.90
2022-12-31T03:19:02.151Z,21.10
2022-12-31T03:19:49.330Z,20.30
2022-12-31T03:20:39.420Z,19.92
2022-12-31T03:21:28.645Z,20.35
2022-12-31T03:22:15.785Z,20.02
2022-12-31T03:22:47.876Z,21.10
2022-12-31T03:23:25.395Z,19.60
2022-12-31T03:24:12.794Z,19.48
2022-12-31T03:25:00.062Z,21.02
2022-12-31T03:25:35.367Z,19.30
2022-12-31T03:26:10.094Z,17.83
2022-12-31T03:26:42.206Z,20.80
2022-12-31T03:27:14.307Z,21.25
2022-12-31T03:27:47.335Z,20.45
2022-12-31T03:28:24.674Z,20.17
2022-12-31T03:28:56.765Z,20.00
2022-12-31T03:29:28.851Z,19.33
2022-12-31T03:30:00.944Z,19.23
2022-12-31T03:30:40.268Z,21.27
2022-12-31T03:31:12.557Z,19.75
2022-12-31T03:31:44.711Z,19.85
2022-12-31T03:32:17.035Z,19.80
2022-12-31T03:32:52.400Z,22.08
2022-12-31T03:33:25.881Z,20.05
2022-12-31T03:34:00.575Z,19.88
2022-12-31T03:34:32.669Z,19.30
2022-12-31T03:35:06.477Z,20.55
2022-12-31T03:35:42.681Z,19.60
2022-12-31T03:36:15.774Z,21.73
2022-12-31T03:36:47.926Z,20.23
2022-12-31T03:37:22.582Z,20.38
2022-12-31T03:37:54.907Z,21.40
2022-12-31T03:38:29.582Z,20.38
2022-12-31T03:39:01.679Z,21.33
2022-12-31T03:39:33.977Z,20.08
2022-12-31T03:40:08.488Z,21.75
2022-12-31T03:40:44.548Z,20.70
2022-12-31T03:41:16.678Z,22.17
2022-12-31T03:41:48.752Z,20.27
2022-12-31T03:42:20.859Z,20.83
2022-12-31T03:42:55.856Z,22.52
2022-12-31T03:43:27.988Z,20.05
2022-12-31T03:44:00.131Z,21.65
2022-12-31T03:44:34.801Z,21.88
2022-12-31T03:45:10.607Z,20.98
2022-12-31T03:45:47.988Z,20.15
2022-12-31T03:46:20.331Z,21.20
2022-12-31T03:46:52.456Z,20.90
2022-12-31T03:47:24.535Z,20.75
2022-12-31T03:47:59.292Z,22.42
2022-12-31T03:48:31.420Z,22.40
2022-12-31T03:49:03.525Z,20.45
2022-12-31T03:49:35.628Z,22.58
2022-12-31T03:50:12.366Z,22.20
2022-12-31T03:50:44.836Z,20.85
2022-12-31T03:51:16.971Z,20.55
2022-12-31T03:51:51.677Z,21.15
2022-12-31T03:52:23.897Z,20.80
2022-12-31T03:52:58.786Z,21.83
2022-12-31T03:53:30.923Z,20.42
2022-12-31T03:54:03.076Z,21.45
2022-12-31T03:54:37.783Z,21.35
2022-12-31T03:55:11.320Z,21.20
2022-12-31T03:55:46.123Z,22.80
2022-12-31T03:56:18.263Z,21.90
2022-12-31T03:56:53.004Z,21.00
2022-12-31T03:57:30.039Z,19.92
2022-12-31T03:58:02.129Z,20.33
2022-12-31T03:58:36.831Z,21.67
2022-12-31T03:59:08.892Z,22.92
2022-12-31T03:59:41.049Z,21.92
2022-12-31T04:00:20.413Z,22.02
2022-12-31T04:00:55.113Z,20.13
2022-12-31T04:01:27.548Z,22.20
2022-12-31T04:01:59.849Z,21.27
2022-12-31T04:02:34.928Z,22.92
2022-12-31T04:03:07.179Z,21.67
2022-12-31T04:03:42.023Z,21.33
2022-12-31T04:04:14.115Z,21.35
2022-12-31T04:04:46.208Z,21.90
2022-12-31T04:05:22.477Z,21.98
2022-12-31T04:05:55.464Z,21.30
2022-12-31T04:06:27.725Z,19.52
2022-12-31T04:07:02.519Z,21.98
2022-12-31T04:07:34.748Z,21.25
2022-12-31T04:08:09.425Z,22.42
2022-12-31T04:08:41.561Z,20.50
2022-12-31T04:09:13.707Z,22.00
2022-12-31T04:09:48.381Z,21.08
2022-12-31T04:10:20.981Z,21.05
2022-12-31T04:10:55.720Z,19.58
2022-12-31T04:11:27.824Z,21.35
2022-12-31T04:11:59.931Z,21.23
2022-12-31T04:12:36.300Z,20.80
2022-12-31T04:13:08.414Z,21.80
2022-12-31T04:13:40.539Z,20.50
2022-12-31T04:14:12.649Z,19.88
2022-12-31T04:14:47.324Z,21.55
2022-12-31T04:15:21.060Z,21.02
2022-12-31T04:15:58.401Z,21.23
2022-12-31T04:16:32.335Z,20.13
2022-12-31T04:17:04.837Z,20.58
2022-12-31T04:17:39.605Z,19.45
2022-12-31T04:18:11.719Z,21.83
2022-12-31T04:18:43.846Z,20.30
2022-12-31T04:19:18.573Z,22.02
2022-12-31T04:19:50.704Z,21.65
2022-12-31T04:20:25.467Z,22.52
2022-12-31T04:21:02.079Z,21.38
2022-12-31T04:21:35.302Z,22.60
2022-12-31T04:22:10.569Z,21.27
2022-12-31T04:22:42.735Z,21.90
2022-12-31T04:23:19.461Z,20.90
2022-12-31T04:23:51.567Z,22.40
2022-12-31T04:24:24.112Z,20.75
2022-12-31T04:24:58.763Z,21.63
2022-12-31T04:25:30.882Z,21.70
2022-12-31T04:26:02.993Z,21.73
2022-12-31T04:26:38.077Z,21.83
2022-12-31T04:27:10.278Z,20.92
2022-12-31T04:27:43.958Z,21.33
2022-12-31T04:28:18.721Z,22.83
2022-12-31T04:28:50.796Z,19.98
2022-12-31T04:29:23.117Z,20.90
2022-12-31T04:29:57.804Z,22.45
2022-12-31T04:30:29.913Z,21.73
2022-12-31T04:31:04.731Z,21.73
2022-12-31T04:31:36.951Z,22.38
2022-12-31T04:32:12.553Z,22.30
2022-12-31T04:32:44.841Z,22.13
2022-12-31T04:33:17.433Z,21.35
2022-12-31T04:33:49.604Z,21.73
2022-12-31T04:34:24.659Z,20.73
2022-12-31T04:34:56.840Z,20.70
2022-12-31T04:35:28.979Z,22.00
2022-12-31T04:36:04.149Z,21.35
2022-12-31T04:36:36.368Z,21.13
2022-12-31T04:37:11.084Z,21.98
2022-12-31T04:37:43.222Z,22.65
2022-12-31T04:38:15.464Z,23.80
2022-12-31T04:38:50.189Z,22.85
2022-12-31T04:39:22.338Z,22.08
2022-12-31T04:39:57.930Z,20.63
2022-12-31T04:40:56.669Z,21.90
2022-12-31T04:41:29.004Z,21.65
2022-12-31T04:42:01.106Z,20.95
2022-12-31T04:42:35.879Z,21.10
2022-12-31T04:43:08.023Z,20.50
2022-12-31T04:43:40.186Z,22.23
2022-12-31T04:44:14.965Z,22.08
2022-12-31T04:44:47.084Z,21.83
2022-12-31T04:45:21.795Z,21.25
2022-12-31T04:45:54.009Z,22.02
2022-12-31T04:46:30.818Z,21.65
2022-12-31T04:47:05.524Z,22.52
2022-12-31T04:47:37.684Z,21.88
2022-12-31T04:48:10.035Z,20.95
2022-12-31T04:48:42.332Z,22.20
2022-12-31T04:49:18.211Z,22.00
2022-12-31T04:49:50.319Z,22.30
2022-12-31T04:50:22.460Z,23.33
2022-12-31T04:50:57.127Z,23.00
2022-12-31T04:51:30.791Z,22.73
2022-12-31T04:52:05.942Z,22.30
2022-12-31T04:52:42.751Z,22.02
2022-12-31T04:53:15.281Z,22.25
2022-12-31T04:53:50.320Z,21.35
2022-12-31T04:54:22.599Z,21.02
2022-12-31T04:54:57.301Z,24.45
2022-12-31T04:55:29.491Z,24.27
2022-12-31T04:56:01.782Z,22.63
2022-12-31T04:56:37.006Z,22.67
2022-12-31T04:57:09.114Z,24.70
2022-12-31T04:57:41.725Z,23.05
2022-12-31T04:58:13.811Z,23.80
2022-12-31T04:58:48.571Z,22.33
2022-12-31T04:59:20.715Z,23.13
2022-12-31T04:59:52.844Z,22.65
2022-12-31T05:00:27.552Z,22.80
2022-12-31T05:00:59.911Z,22.35
2022-12-31T05:01:37.393Z,22.85
2022-12-31T05:02:09.844Z,22.58
2022-12-31T05:02:42.226Z,21.27
2022-12-31T05:03:14.492Z,22.85
2022-12-31T05:03:49.669Z,22.42
2022-12-31T05:04:21.757Z,22.70
2022-12-31T05:04:53.895Z,23.13
2022-12-31T05:05:28.613Z,21.45
2022-12-31T05:06:02.136Z,22.38
2022-12-31T05:06:34.238Z,21.67
2022-12-31T05:07:09.181Z,23.52
2022-12-31T05:07:41.273Z,22.33
2022-12-31T05:08:14.195Z,23.15
2022-12-31T05:08:49.558Z,21.90
2022-12-31T05:09:24.218Z,23.48
2022-12-31T05:09:56.392Z,24.92
2022-12-31T05:10:31.575Z,23.95
2022-12-31T05:11:03.892Z,24.00
2022-12-31T05:11:37.977Z,22.80
2022-12-31T05:12:12.625Z,23.25
2022-12-31T05:12:44.723Z,22.63
2022-12-31T05:13:17.153Z,24.17
2022-12-31T05:13:51.838Z,21.60
2022-12-31T05:14:24.059Z,22.63
2022-12-31T05:14:56.334Z,23.08
2022-12-31T05:15:31.078Z,24.65
2022-12-31T05:16:04.242Z,23.70
2022-12-31T05:16:41.529Z,23.52
2022-12-31T05:17:13.700Z,24.45
2022-12-31T05:17:45.859Z,24.70
2022-12-31T05:18:18.363Z,22.98
2022-12-31T05:18:53.031Z,24.05
2022-12-31T05:19:26.242Z,23.58
2022-12-31T05:19:58.384Z,23.05
2022-12-31T05:20:33.236Z,23.95
2022-12-31T05:21:06.512Z,24.52
2022-12-31T05:21:41.260Z,25.73
2022-12-31T05:22:28.511Z,24.45
2022-12-31T05:23:00.855Z,23.65
2022-12-31T05:23:35.586Z,25.50
2022-12-31T05:24:08.472Z,24.63
2022-12-31T05:24:40.577Z,23.55
2022-12-31T05:25:15.253Z,25.02
2022-12-31T05:25:48.517Z,24.80
2022-12-31T05:26:23.326Z,23.42
2022-12-31T05:26:55.504Z,23.63
2022-12-31T05:27:31.202Z,24.08
2022-12-31T05:28:06.500Z,23.42
2022-12-31T05:28:38.938Z,24.88
2022-12-31T05:29:13.655Z,23.98
2022-12-31T05:29:45.762Z,27.20
2022-12-31T05:30:18.761Z,27.88
2022-12-31T05:30:54.370Z,24.77
2022-12-31T05:31:27.035Z,22.30
2022-12-31T05:32:01.817Z,24.13
2022-12-31T05:32:37.527Z,23.67
2022-12-31T05:33:09.829Z,24.33
2022-12-31T05:33:41.992Z,25.73
2022-12-31T05:34:16.737Z,25.35
2022-12-31T05:34:48.842Z,25.02
2022-12-31T05:35:20.963Z,24.52
2022-12-31T05:35:57.995Z,25.70
2022-12-31T05:36:32.121Z,25.70
2022-12-31T05:37:04.335Z,23.35
2022-12-31T05:37:36.665Z,25.65
2022-12-31T05:38:11.610Z,23.55
2022-12-31T05:38:43.758Z,24.17
2022-12-31T05:39:15.998Z,23.25
2022-12-31T05:39:50.747Z,24.60
2022-12-31T05:40:23.077Z,23.05
2022-12-31T05:41:02.841Z,23.65
2022-12-31T05:41:37.675Z,23.98
2022-12-31T05:42:09.789Z,23.13
2022-12-31T05:42:41.975Z,26.15
2022-12-31T05:43:16.741Z,24.35
2022-12-31T05:43:50.366Z,23.35
2022-12-31T05:44:22.444Z,22.90
2022-12-31T05:44:57.177Z,24.92
2022-12-31T05:45:31.165Z,24.25
2022-12-31T05:46:07.538Z,25.27
2022-12-31T05:46:39.804Z,23.95
2022-12-31T05:47:15.047Z,23.52
2022-12-31T05:47:49.915Z,24.38
2022-12-31T05:48:22.389Z,24.48
2022-12-31T05:48:57.138Z,24.42
2022-12-31T05:49:29.233Z,24.38
2022-12-31T05:50:01.424Z,25.23
2022-12-31T05:50:36.125Z,24.98
2022-12-31T05:51:09.429Z,26.13
2022-12-31T05:51:41.671Z,25.13
2022-12-31T05:52:16.511Z,23.52
2022-12-31T05:52:48.806Z,26.35
2022-12-31T05:53:20.935Z,24.83
2022-12-31T05:53:55.720Z,26.55
2022-12-31T05:54:27.890Z,25.38
2022-12-31T05:55:00.037Z,28.08
2022-12-31T05:55:34.762Z,28.10
2022-12-31T05:56:07.117Z,28.70
2022-12-31T05:56:39.244Z,29.08
2022-12-31T05:57:14.170Z,28.90
2022-12-31T05:57:46.317Z,29.40
2022-12-31T05:58:21.318Z,29.60
2022-12-31T05:58:53.506Z,28.52
2022-12-31T05:59:25.799Z,28.75
2022-12-31T05:59:57.977Z,28.63
2022-12-31T06:00:32.643Z,28.38
2022-12-31T06:01:05.145Z,26.65
2022-12-31T06:01:37.603Z,29.02
2022-12-31T06:02:12.431Z,31.38
2022-12-31T06:02:47.234Z,29.52
2022-12-31T06:03:22.253Z,31.85
2022-12-31T06:03:55.421Z,29.05
2022-12-31T06:04:27.768Z,31.67
2022-12-31T06:05:03.026Z,30.45
2022-12-31T06:05:35.189Z,30.30
2022-12-31T06:06:10.840Z,31.65
2022-12-31T06:06:43.087Z,32.55
2022-12-31T06:07:16.518Z,30.45
2022-12-31T06:07:51.207Z,29.65
2022-12-31T06:08:24.178Z,31.02
2022-12-31T06:08:56.312Z,32.08
2022-12-31T06:09:31.001Z,31.27
2022-12-31T06:10:03.192Z,29.98
2022-12-31T06:10:37.899Z,31.65
2022-12-31T06:11:10.096Z,31.10
2022-12-31T06:11:42.335Z,30.25
2022-12-31T06:12:17.180Z,32.05
2022-12-31T06:12:49.276Z,31.60
2022-12-31T06:13:21.362Z,30.05
2022-12-31T06:13:56.201Z,30.58
2022-12-31T06:14:28.301Z,31.77
2022-12-31T06:15:00.663Z,31.85
2022-12-31T06:15:40.438Z,32.10
2022-12-31T06:16:13.026Z,33.58
2022-12-31T06:16:45.220Z,32.40
2022-12-31T06:17:20.732Z,32.63
2022-12-31T06:17:55.498Z,31.42
2022-12-31T06:18:27.570Z,30.63
2022-12-31T06:19:02.553Z,32.03
2022-12-31T06:19:34.777Z,29.65
2022-12-31T06:20:12.848Z,33.42
2022-12-31T06:20:47.938Z,33.28
2022-12-31T06:21:21.461Z,30.95
2022-12-31T06:21:53.565Z,31.55
2022-12-31T06:22:28.430Z,31.33
2022-12-31T06:23:00.528Z,31.08
2022-12-31T06:23:32.667Z,32.65
2022-12-31T06:24:08.202Z,31.48
2022-12-31T06:24:40.330Z,32.63
2022-12-31T06:25:15.121Z,32.60
2022-12-31T06:25:47.213Z,32.28
2022-12-31T06:26:19.307Z,33.40
2022-12-31T06:26:54.010Z,33.03
2022-12-31T06:27:26.164Z,32.60
2022-12-31T06:27:58.341Z,31.08
2022-12-31T06:28:35.823Z,34.20
2022-12-31T06:29:08.086Z,30.65
2022-12-31T06:29:40.393Z,32.80
2022-12-31T06:30:16.508Z,32.30
2022-12-31T06:30:49.037Z,31.20
2022-12-31T06:31:21.276Z,32.08
2022-12-31T06:31:53.402Z,32.35
2022-12-31T06:32:28.173Z,33.17
2022-12-31T06:33:02.983Z,29.45
2022-12-31T06:33:35.706Z,32.15
2022-12-31T06:34:10.575Z,28.58
2022-12-31T06:34:42.664Z,30.75
2022-12-31T06:35:17.980Z,30.58
2022-12-31T06:35:55.141Z,32.25
2022-12-31T06:36:27.290Z,31.08
2022-12-31T06:37:02.379Z,32.97
2022-12-31T06:37:34.837Z,29.42
2022-12-31T06:38:06.977Z,33.42
2022-12-31T06:38:43.330Z,34.03
2022-12-31T06:39:15.470Z,29.75
2022-12-31T06:39:47.784Z,33.67
2022-12-31T06:40:25.464Z,31.88
2022-12-31T06:40:57.559Z,32.95
2022-12-31T06:41:29.664Z,31.85
2022-12-31T06:42:01.844Z,29.02
2022-12-31T06:42:36.520Z,29.83
2022-12-31T06:43:08.653Z,29.73
2022-12-31T06:43:41.536Z,31.75
2022-12-31T06:44:16.412Z,30.58
2022-12-31T06:44:49.059Z,31.67
2022-12-31T06:45:21.280Z,30.60
2022-12-31T06:45:55.977Z,32.95
2022-12-31T06:46:28.085Z,33.40
2022-12-31T06:47:00.333Z,31.73
2022-12-31T06:47:35.152Z,32.85
2022-12-31T06:48:10.038Z,31.30
2022-12-31T06:48:44.734Z,31.67
2022-12-31T06:49:19.729Z,29.80
2022-12-31T06:49:52.319Z,31.60
2022-12-31T06:50:24.470Z,48.85
2022-12-31T06:50:59.334Z,33.88
2022-12-31T06:51:32.938Z,28.20
2022-12-31T06:52:05.380Z,30.00
2022-12-31T06:52:40.157Z,31.10
2022-12-31T06:53:12.346Z,32.85
2022-12-31T06:53:44.880Z,28.55
2022-12-31T06:54:19.621Z,29.42
2022-12-31T06:54:52.357Z,29.15
2022-12-31T06:55:25.627Z,30.45
2022-12-31T06:56:00.993Z,31.67
2022-12-31T06:56:34.991Z,29.63
2022-12-31T06:57:12.136Z,29.27
2022-12-31T06:57:44.829Z,28.27
2022-12-31T06:58:18.464Z,28.52
2022-12-31T06:58:54.196Z,28.20
2022-12-31T06:59:29.541Z,29.80
2022-12-31T07:00:05.177Z,30.27
2022-12-31T07:00:37.674Z,29.70
2022-12-31T07:01:27.559Z,29.75
2022-12-31T07:02:20.046Z,31.55
2022-12-31T07:03:19.310Z,30.50
2022-12-31T07:04:01.264Z,31.20
2022-12-31T07:05:01.779Z,31.00
2022-12-31T07:05:45.456Z,30.58
2022-12-31T07:06:29.241Z,32.75
2022-12-31T07:07:08.224Z,33.92
2022-12-31T07:07:50.659Z,31.95
2022-12-31T07:08:40.867Z,33.90
2022-12-31T07:09:22.325Z,30.15
2022-12-31T07:10:01.058Z,33.17
2022-12-31T07:10:44.028Z,31.85
2022-12-31T07:11:21.262Z,32.25
2022-12-31T07:12:00.854Z,32.17
2022-12-31T07:12:52.283Z,30.52
2022-12-31T07:13:42.808Z,30.77
2022-12-31T07:14:29.917Z,30.85
2022-12-31T07:15:08.431Z,29.60
2022-12-31T07:15:50.509Z,30.42
2022-12-31T07:16:37.499Z,29.10
2022-12-31T07:17:24.180Z,28.73
2022-12-31T07:18:09.408Z,30.42
2022-12-31T07:18:48.103Z,29.92
2022-12-31T07:19:31.922Z,32.28
2022-12-31T07:20:09.024Z,33.45
2022-12-31T07:20:41.950Z,32.88
2022-12-31T07:21:19.054Z,33.15
2022-12-31T07:21:53.405Z,34.20
2022-12-31T07:22:26.504Z,32.70
2022-12-31T07:23:01.809Z,31.70
2022-12-31T07:23:34.683Z,32.05
2022-12-31T07:24:11.379Z,33.15
2022-12-31T07:24:44.700Z,32.38
2022-12-31T07:25:18.535Z,32.13
2022-12-31T07:25:59.212Z,31.38
2022-12-31T07:26:52.630Z,30.23
2022-12-31T07:27:44.850Z,30.88
2022-12-31T07:28:28.483Z,30.02
2022-12-31T07:29:12.069Z,33.13
2022-12-31T07:30:00.808Z,32.10
2022-12-31T07:30:41.949Z,28.45
2022-12-31T07:32:02.201Z,30.90
2022-12-31T07:32:56.500Z,28.48
2022-12-31T07:33:43.742Z,28.45
2022-12-31T07:34:28.604Z,29.20
2022-12-31T07:35:09.698Z,28.38
2022-12-31T07:35:53.556Z,31.73
2022-12-31T07:36:49.431Z,29.98
2022-12-31T07:37:36.441Z,31.10
2022-12-31T07:38:18.496Z,31.42
2022-12-31T07:38:59.478Z,32.08
2022-12-31T07:39:41.934Z,33.92
2022-12-31T07:40:19.035Z,32.45
2022-12-31T07:41:04.135Z,36.85
2022-12-31T07:41:56.588Z,35.38